»·PEaware :: N149CD KSBD-KVNY

N149CD :: KSBD-KVNY

FLIGHT INFORMATION

Flight Status: Arrived
Operator: Privately registered:
United States
More flights under this callsign
Pilot: Nathan E. (30132)
Aircraft: CESSNA 172 SKYHAWK
(C172)
More flights by this aircraft type
Origin: KSBD San Bernardino Intl
United States
Destination: KVNY Van Nuys
United States
More flights between these airports :: More routes between these airports
Route: PDZ V186 VNY
File this flight plan on PilotEdge
Remarks: TEC route ONTP1
Altitude:
(Current/Filed)
6,000ft
Speed:
(Current/Filed)
110kts
Departed: 25-Nov-20 11:55 AM
Arrived: 25-Nov-20 12:53 PM
Distance/Time
Traveled:
63nm/0:57
Distance/Time
To Go:
Arrived

Flight Plot

Page will automatically refresh every two minutes.


Map Options




Map Legend


Flown Route
Filed Route
Departure Airport
Arrival Airport
Navaid (VOR, NDB)
Fix

Horizontal Profiles

Position Reports

Time Latitude Longitude Heading Altitude Ground
Speed
25-Nov-20 11:28 34.102166 -117.224731 94 1146ft 0kts
25-Nov-20 11:29 34.102166 -117.224731 94 1146ft 0kts
25-Nov-20 11:30 34.102166 -117.224731 93 1146ft 0kts
25-Nov-20 11:31 34.102166 -117.224731 93 1146ft 0kts
25-Nov-20 11:32 34.102166 -117.224731 93 1146ft 0kts
25-Nov-20 11:33 34.102166 -117.224731 93 1146ft 0kts
25-Nov-20 11:34 34.102166 -117.224731 93 1146ft 0kts
25-Nov-20 11:35 34.102166 -117.224731 93 1146ft 0kts
25-Nov-20 11:36 34.102166 -117.224731 93 1146ft 0kts
25-Nov-20 11:37 34.102166 -117.224731 93 1146ft 0kts
25-Nov-20 11:38 34.102166 -117.224731 93 1146ft 0kts
25-Nov-20 11:39 34.102166 -117.224731 93 1146ft 0kts
25-Nov-20 11:40 34.102166 -117.224731 93 1146ft 0kts
25-Nov-20 11:41 34.102166 -117.224731 93 1146ft 0kts
25-Nov-20 11:42 34.102166 -117.224731 93 1146ft 0kts
25-Nov-20 11:43 34.102166 -117.224731 93 1146ft 0kts
25-Nov-20 11:44 34.102166 -117.224731 93 1146ft 0kts
25-Nov-20 11:45 34.102166 -117.224731 93 1146ft 0kts
25-Nov-20 11:46 34.102166 -117.224731 93 1146ft 0kts
25-Nov-20 11:47 34.100826 -117.225030 206 1145ft 8kts
25-Nov-20 11:48 34.098998 -117.228592 250 1135ft 18kts
25-Nov-20 11:49 34.096947 -117.235520 250 1117ft 22kts
25-Nov-20 11:50 34.094585 -117.243516 249 1096ft 24kts
25-Nov-20 11:51 34.092299 -117.251140 241 1081ft 18kts
25-Nov-20 11:52 34.091497 -117.251350 98 1080ft 0kts
25-Nov-20 11:53 34.091522 -117.250718 163 1081ft 9kts
25-Nov-20 11:54 34.094922 -117.236198 70 1289ft 81kts
25-Nov-20 11:55 34.101717 -117.211019 94 2213ft 78kts
25-Nov-20 11:56 34.085501 -117.211817 239 3074ft 80kts
25-Nov-20 11:57 34.073568 -117.235061 241 3894ft 81kts
25-Nov-20 11:58 34.061566 -117.258151 242 4670ft 82kts
25-Nov-20 11:59 34.049400 -117.281414 243 5411ft 82kts
25-Nov-20 12:00 34.036964 -117.305167 243 6012ft 95kts
25-Nov-20 12:01 34.020407 -117.336858 242 6012ft 114kts
25-Nov-20 12:02 34.003072 -117.369728 242 6014ft 116kts
25-Nov-20 12:03 33.985776 -117.402471 242 6016ft 115kts
25-Nov-20 12:04 33.983359 -117.436636 289 6045ft 106kts
25-Nov-20 12:05 33.991781 -117.471373 288 6045ft 107kts
25-Nov-20 12:06 33.999939 -117.506147 288 6046ft 107kts
25-Nov-20 12:07 34.007988 -117.540826 287 6047ft 107kts
25-Nov-20 12:08 34.015950 -117.575275 287 6047ft 106kts
25-Nov-20 12:09 34.023869 -117.609622 286 6048ft 105kts
25-Nov-20 12:10 34.031710 -117.643733 287 6047ft 105kts
25-Nov-20 12:11 34.039585 -117.678015 287 6048ft 106kts
25-Nov-20 12:12 34.047550 -117.712726 287 6048ft 107kts
25-Nov-20 12:13 34.055531 -117.747547 288 6047ft 108kts
25-Nov-20 12:14 34.063601 -117.782802 288 6047ft 109kts
25-Nov-20 12:15 34.071726 -117.818344 289 6046ft 111kts
25-Nov-20 12:16 34.080003 -117.854591 289 6047ft 112kts
25-Nov-20 12:17 34.088284 -117.890923 289 6048ft 112kts
25-Nov-20 12:18 34.096615 -117.927488 289 6049ft 112kts
25-Nov-20 12:19 34.104925 -117.963973 289 6051ft 112kts
25-Nov-20 12:20 34.113189 -118.000394 289 6052ft 112kts
25-Nov-20 12:21 34.121408 -118.036761 289 6054ft 112kts
25-Nov-20 12:22 34.129628 -118.073159 289 6055ft 112kts
25-Nov-20 12:23 34.137884 -118.109711 290 6053ft 113kts
25-Nov-20 12:24 34.146196 -118.146551 290 6051ft 115kts
25-Nov-20 12:25 34.154705 -118.184325 290 6048ft 117kts
25-Nov-20 12:26 34.163339 -118.222711 290 6045ft 119kts
25-Nov-20 12:27 34.172130 -118.261859 289 6042ft 122kts
25-Nov-20 12:28 34.181071 -118.301758 289 6030ft 124kts
25-Nov-20 12:29 34.190068 -118.342002 289 6028ft 122kts
25-Nov-20 12:30 34.198810 -118.381127 290 6027ft 119kts
25-Nov-20 12:31 34.207434 -118.419787 290 6026ft 118kts
25-Nov-20 12:32 34.215952 -118.458040 290 6025ft 116kts
25-Nov-20 12:33 34.229214 -118.491347 330 6022ft 108kts
25-Nov-20 12:34 34.256475 -118.506250 341 6021ft 107kts
25-Nov-20 12:35 34.284399 -118.518874 341 6020ft 107kts
25-Nov-20 12:36 34.312271 -118.531326 341 6019ft 107kts
25-Nov-20 12:37 34.340168 -118.543788 341 6019ft 106kts
25-Nov-20 12:38 34.368054 -118.556255 340 6018ft 107kts
25-Nov-20 12:39 34.395992 -118.568755 340 6018ft 107kts
25-Nov-20 12:40 34.423883 -118.581242 340 6018ft 107kts
25-Nov-20 12:41 34.451641 -118.585623 36 6017ft 109kts
25-Nov-20 12:42 34.467539 -118.553336 61 6018ft 113kts
25-Nov-20 12:43 34.471715 -118.517737 135 5843ft 123kts
25-Nov-20 12:44 34.438087 -118.511692 176 5341ft 121kts
25-Nov-20 12:45 34.404142 -118.508723 175 4846ft 124kts
25-Nov-20 12:46 34.369944 -118.505441 174 4310ft 125kts
25-Nov-20 12:47 34.335675 -118.502259 174 3593ft 121kts
25-Nov-20 12:49 34.302577 -118.499127 174 2848ft 118kts
25-Nov-20 12:50 34.270187 -118.496044 175 2107ft 116kts
25-Nov-20 12:51 34.241710 -118.493397 175 1455ft 89kts
25-Nov-20 12:52 34.221442 -118.491458 174 984ft 67kts
25-Nov-20 12:53 34.210146 -118.491068 264 806ft 4kts
25-Nov-20 12:54 34.208557 -118.491824 252 806ft 12kts
25-Nov-20 12:55 34.208410 -118.491993 84 806ft 0kts

Navigation Log

Ident Type
Flight plan parsing failed, navigation log unavailable